sensor_id;sensor_type;location;lat;lon;timestamp;temperature;humidity
1259;DHT22;619;51.472;6.628;2023-08-17T00:02:23;22.90;89.40
1259;DHT22;619;51.472;6.628;2023-08-17T00:04:48;22.80;89.50
1259;DHT22;619;51.472;6.628;2023-08-17T00:07:18;22.80;89.50
1259;DHT22;619;51.472;6.628;2023-08-17T00:09:44;22.80;89.50
1259;DHT22;619;51.472;6.628;2023-08-17T00:12:13;22.80;89.80
1259;DHT22;619;51.472;6.628;2023-08-17T00:14:38;22.80;89.90
1259;DHT22;619;51.472;6.628;2023-08-17T00:17:04;22.80;90.00
1259;DHT22;619;51.472;6.628;2023-08-17T00:19:29;22.80;90.10
1259;DHT22;619;51.472;6.628;2023-08-17T00:21:55;22.80;90.10
1259;DHT22;619;51.472;6.628;2023-08-17T00:24:21;22.80;90.20
1259;DHT22;619;51.472;6.628;2023-08-17T00:26:46;22.80;90.20
1259;DHT22;619;51.472;6.628;2023-08-17T00:31:39;22.80;90.20
1259;DHT22;619;51.472;6.628;2023-08-17T00:34:04;22.80;90.20
1259;DHT22;619;51.472;6.628;2023-08-17T00:36:30;22.80;90.10
1259;DHT22;619;51.472;6.628;2023-08-17T00:38:56;22.70;90.20
1259;DHT22;619;51.472;6.628;2023-08-17T00:41:21;22.80;90.40
1259;DHT22;619;51.472;6.628;2023-08-17T00:43:47;22.80;90.40
1259;DHT22;619;51.472;6.628;2023-08-17T00:46:13;22.80;90.40
1259;DHT22;619;51.472;6.628;2023-08-17T00:48:40;22.80;90.40
1259;DHT22;619;51.472;6.628;2023-08-17T00:51:08;22.90;90.40
1259;DHT22;619;51.472;6.628;2023-08-17T00:53:34;22.90;90.30
1259;DHT22;619;51.472;6.628;2023-08-17T00:56:02;22.90;90.40
1259;DHT22;619;51.472;6.628;2023-08-17T00:58:28;22.90;90.30
1259;DHT22;619;51.472;6.628;2023-08-17T01:00:55;22.90;90.10
1259;DHT22;619;51.472;6.628;2023-08-17T01:03:22;22.90;90.20
1259;DHT22;619;51.472;6.628;2023-08-17T01:05:48;22.80;90.20
1259;DHT22;619;51.472;6.628;2023-08-17T01:08:16;22.80;90.30
1259;DHT22;619;51.472;6.628;2023-08-17T01:16:42;22.80;90.40
1259;DHT22;619;51.472;6.628;2023-08-17T01:19:08;22.80;90.40
1259;DHT22;619;51.472;6.628;2023-08-17T01:21:45;22.90;90.40
1259;DHT22;619;51.472;6.628;2023-08-17T01:24:12;22.90;90.40
1259;DHT22;619;51.472;6.628;2023-08-17T01:26:39;22.80;90.60
1259;DHT22;619;51.472;6.628;2023-08-17T01:29:05;22.80;90.30
1259;DHT22;619;51.472;6.628;2023-08-17T01:31:37;22.80;90.20
1259;DHT22;619;51.472;6.628;2023-08-17T01:34:08;22.70;90.20
1259;DHT22;619;51.472;6.628;2023-08-17T01:36:43;22.70;90.30
1259;DHT22;619;51.472;6.628;2023-08-17T01:39:11;22.70;90.60
1259;DHT22;619;51.472;6.628;2023-08-17T01:41:37;22.70;90.30
1259;DHT22;619;51.472;6.628;2023-08-17T01:44:08;22.70;90.30
1259;DHT22;619;51.472;6.628;2023-08-17T01:46:37;22.60;90.30
1259;DHT22;619;51.472;6.628;2023-08-17T01:49:03;22.60;90.30
1259;DHT22;619;51.472;6.628;2023-08-17T01:51:28;22.60;90.40
1259;DHT22;619;51.472;6.628;2023-08-17T01:53:54;22.60;90.50
1259;DHT22;619;51.472;6.628;2023-08-17T01:56:20;22.60;90.40
1259;DHT22;619;51.472;6.628;2023-08-17T01:58:45;22.60;90.40
1259;DHT22;619;51.472;6.628;2023-08-17T02:01:11;22.70;90.50
1259;DHT22;619;51.472;6.628;2023-08-17T02:03:39;22.60;90.30
1259;DHT22;619;51.472;6.628;2023-08-17T02:06:05;22.70;90.40
1259;DHT22;619;51.472;6.628;2023-08-17T02:08:33;22.70;90.40
1259;DHT22;619;51.472;6.628;2023-08-17T02:10:59;22.70;90.40
1259;DHT22;619;51.472;6.628;2023-08-17T02:13:24;22.70;90.30
1259;DHT22;619;51.472;6.628;2023-08-17T02:15:52;22.70;90.30
1259;DHT22;619;51.472;6.628;2023-08-17T02:18:18;22.80;90.40
1259;DHT22;619;51.472;6.628;2023-08-17T02:20:45;22.80;90.40
1259;DHT22;619;51.472;6.628;2023-08-17T02:23:10;22.80;90.40
1259;DHT22;619;51.472;6.628;2023-08-17T02:25:39;22.80;90.30
1259;DHT22;619;51.472;6.628;2023-08-17T02:28:05;22.90;90.30
1259;DHT22;619;51.472;6.628;2023-08-17T02:30:31;22.90;90.30
1259;DHT22;619;51.472;6.628;2023-08-17T02:32:57;22.90;90.30
1259;DHT22;619;51.472;6.628;2023-08-17T02:35:23;22.90;90.10
1259;DHT22;619;51.472;6.628;2023-08-17T02:37:49;22.90;90.00
1259;DHT22;619;51.472;6.628;2023-08-17T02:40:17;22.90;90.00
1259;DHT22;619;51.472;6.628;2023-08-17T02:42:42;22.90;89.80
1259;DHT22;619;51.472;6.628;2023-08-17T02:45:08;22.80;89.60
1259;DHT22;619;51.472;6.628;2023-08-17T02:47:34;22.80;90.00
1259;DHT22;619;51.472;6.628;2023-08-17T02:50:00;22.80;90.00
1259;DHT22;619;51.472;6.628;2023-08-17T02:52:26;22.80;90.00
1259;DHT22;619;51.472;6.628;2023-08-17T02:54:51;22.70;90.00
1259;DHT22;619;51.472;6.628;2023-08-17T02:57:17;22.80;90.00
1259;DHT22;619;51.472;6.628;2023-08-17T02:59:46;22.70;90.00
1259;DHT22;619;51.472;6.628;2023-08-17T03:02:12;22.70;89.80
1259;DHT22;619;51.472;6.628;2023-08-17T03:04:38;22.70;89.90
1259;DHT22;619;51.472;6.628;2023-08-17T03:07:03;22.70;90.00
1259;DHT22;619;51.472;6.628;2023-08-17T03:09:29;22.70;90.00
1259;DHT22;619;51.472;6.628;2023-08-17T03:11:55;22.70;90.00
1259;DHT22;619;51.472;6.628;2023-08-17T03:14:20;22.80;90.00
1259;DHT22;619;51.472;6.628;2023-08-17T03:16:46;22.80;90.00
1259;DHT22;619;51.472;6.628;2023-08-17T03:19:12;22.80;90.00
1259;DHT22;619;51.472;6.628;2023-08-17T03:21:38;22.80;89.90
1259;DHT22;619;51.472;6.628;2023-08-17T03:24:04;22.70;89.70
1259;DHT22;619;51.472;6.628;2023-08-17T03:26:30;22.70;89.70
1259;DHT22;619;51.472;6.628;2023-08-17T03:28:55;22.70;89.70
1259;DHT22;619;51.472;6.628;2023-08-17T03:31:22;22.70;89.40
1259;DHT22;619;51.472;6.628;2023-08-17T03:33:50;22.60;89.30
1259;DHT22;619;51.472;6.628;2023-08-17T03:36:16;22.60;89.40
1259;DHT22;619;51.472;6.628;2023-08-17T03:38:44;22.60;89.60
1259;DHT22;619;51.472;6.628;2023-08-17T03:41:10;22.60;89.60
1259;DHT22;619;51.472;6.628;2023-08-17T03:43:36;22.50;89.40
1259;DHT22;619;51.472;6.628;2023-08-17T03:46:03;22.50;89.50
1259;DHT22;619;51.472;6.628;2023-08-17T03:48:29;22.50;89.60
1259;DHT22;619;51.472;6.628;2023-08-17T03:50:55;22.50;89.70
1259;DHT22;619;51.472;6.628;2023-08-17T03:53:21;22.40;89.70
1259;DHT22;619;51.472;6.628;2023-08-17T03:55:50;22.40;89.80
1259;DHT22;619;51.472;6.628;2023-08-17T03:58:17;22.50;89.80
1259;DHT22;619;51.472;6.628;2023-08-17T04:00:49;22.50;89.70
1259;DHT22;619;51.472;6.628;2023-08-17T04:03:16;22.40;89.50
1259;DHT22;619;51.472;6.628;2023-08-17T04:05:44;22.40;89.50
1259;DHT22;619;51.472;6.628;2023-08-17T04:08:10;22.40;89.50
1259;DHT22;619;51.472;6.628;2023-08-17T04:10:35;22.40;89.60
1259;DHT22;619;51.472;6.628;2023-08-17T04:13:01;22.40;89.70
1259;DHT22;619;51.472;6.628;2023-08-17T04:15:27;22.30;89.70
1259;DHT22;619;51.472;6.628;2023-08-17T04:17:52;22.30;89.70
1259;DHT22;619;51.472;6.628;2023-08-17T04:20:18;22.30;89.80
1259;DHT22;619;51.472;6.628;2023-08-17T04:22:44;22.40;90.00
1259;DHT22;619;51.472;6.628;2023-08-17T04:25:10;22.30;90.00
1259;DHT22;619;51.472;6.628;2023-08-17T04:27:38;22.30;90.00
1259;DHT22;619;51.472;6.628;2023-08-17T04:30:04;22.40;90.00
1259;DHT22;619;51.472;6.628;2023-08-17T04:32:30;22.30;90.00
1259;DHT22;619;51.472;6.628;2023-08-17T04:34:55;22.30;89.70
1259;DHT22;619;51.472;6.628;2023-08-17T04:37:21;22.30;89.70
1259;DHT22;619;51.472;6.628;2023-08-17T04:39:47;22.30;89.90
1259;DHT22;619;51.472;6.628;2023-08-17T04:42:20;22.30;89.90
1259;DHT22;619;51.472;6.628;2023-08-17T04:44:50;22.20;89.80
1259;DHT22;619;51.472;6.628;2023-08-17T04:47:15;22.30;89.80
1259;DHT22;619;51.472;6.628;2023-08-17T04:49:45;22.30;90.00
1259;DHT22;619;51.472;6.628;2023-08-17T04:52:11;22.20;89.90
1259;DHT22;619;51.472;6.628;2023-08-17T04:54:37;22.30;90.00
1259;DHT22;619;51.472;6.628;2023-08-17T04:57:02;22.20;89.80
1259;DHT22;619;51.472;6.628;2023-08-17T04:59:35;22.20;89.80
1259;DHT22;619;51.472;6.628;2023-08-17T05:02:03;22.20;90.00
1259;DHT22;619;51.472;6.628;2023-08-17T05:04:32;22.20;90.00
1259;DHT22;619;51.472;6.628;2023-08-17T05:06:58;22.20;90.10
1259;DHT22;619;51.472;6.628;2023-08-17T05:09:27;22.30;90.10
1259;DHT22;619;51.472;6.628;2023-08-17T05:11:52;22.30;90.10
1259;DHT22;619;51.472;6.628;2023-08-17T05:14:18;22.30;90.20
1259;DHT22;619;51.472;6.628;2023-08-17T05:16:44;22.40;90.30
1259;DHT22;619;51.472;6.628;2023-08-17T05:19:12;22.50;90.60
1259;DHT22;619;51.472;6.628;2023-08-17T05:21:40;22.60;90.30
1259;DHT22;619;51.472;6.628;2023-08-17T05:24:05;22.60;90.20
1259;DHT22;619;51.472;6.628;2023-08-17T05:26:34;22.70;90.20
1259;DHT22;619;51.472;6.628;2023-08-17T05:28:59;22.70;90.20
1259;DHT22;619;51.472;6.628;2023-08-17T05:31:28;22.80;90.10
1259;DHT22;619;51.472;6.628;2023-08-17T05:33:53;22.90;90.00
1259;DHT22;619;51.472;6.628;2023-08-17T05:36:21;22.90;89.60
1259;DHT22;619;51.472;6.628;2023-08-17T05:38:47;22.90;89.50
1259;DHT22;619;51.472;6.628;2023-08-17T05:41:15;22.90;89.60
1259;DHT22;619;51.472;6.628;2023-08-17T05:43:42;22.90;89.60
1259;DHT22;619;51.472;6.628;2023-08-17T05:46:08;22.90;89.70
1259;DHT22;619;51.472;6.628;2023-08-17T05:48:36;23.00;89.30
1259;DHT22;619;51.472;6.628;2023-08-17T05:51:02;23.00;89.10
1259;DHT22;619;51.472;6.628;2023-08-17T05:53:30;23.00;89.30
1259;DHT22;619;51.472;6.628;2023-08-17T05:55:55;23.00;89.40
1259;DHT22;619;51.472;6.628;2023-08-17T05:58:21;23.10;89.40
1259;DHT22;619;51.472;6.628;2023-08-17T06:00:46;23.10;89.20
1259;DHT22;619;51.472;6.628;2023-08-17T06:03:12;23.10;89.20
1259;DHT22;619;51.472;6.628;2023-08-17T06:05:39;23.10;89.10
1259;DHT22;619;51.472;6.628;2023-08-17T06:08:07;23.10;89.10
1259;DHT22;619;51.472;6.628;2023-08-17T06:10:38;23.10;89.30
1259;DHT22;619;51.472;6.628;2023-08-17T06:13:03;23.20;89.50
1259;DHT22;619;51.472;6.628;2023-08-17T06:15:31;23.20;89.30
1259;DHT22;619;51.472;6.628;2023-08-17T06:17:59;23.20;89.30
1259;DHT22;619;51.472;6.628;2023-08-17T06:20:25;23.30;89.30
1259;DHT22;619;51.472;6.628;2023-08-17T06:22:55;23.30;89.20
1259;DHT22;619;51.472;6.628;2023-08-17T06:25:21;23.30;88.90
1259;DHT22;619;51.472;6.628;2023-08-17T06:27:49;23.30;88.70
1259;DHT22;619;51.472;6.628;2023-08-17T06:30:17;23.40;88.80
1259;DHT22;619;51.472;6.628;2023-08-17T06:32:43;23.40;89.00
1259;DHT22;619;51.472;6.628;2023-08-17T06:35:08;23.50;88.70
1259;DHT22;619;51.472;6.628;2023-08-17T06:37:36;23.50;88.70
1259;DHT22;619;51.472;6.628;2023-08-17T06:40:05;23.50;88.80
1259;DHT22;619;51.472;6.628;2023-08-17T06:42:31;23.60;88.80
1259;DHT22;619;51.472;6.628;2023-08-17T06:44:59;23.60;88.90
1259;DHT22;619;51.472;6.628;2023-08-17T06:47:25;23.70;88.90
1259;DHT22;619;51.472;6.628;2023-08-17T06:49:51;23.70;88.50
1259;DHT22;619;51.472;6.628;2023-08-17T06:52:19;23.80;88.80
1259;DHT22;619;51.472;6.628;2023-08-17T06:54:45;23.80;88.50
1259;DHT22;619;51.472;6.628;2023-08-17T06:57:12;23.80;88.00
1259;DHT22;619;51.472;6.628;2023-08-17T06:59:38;23.90;88.30
1259;DHT22;619;51.472;6.628;2023-08-17T07:02:06;23.90;88.30
1259;DHT22;619;51.472;6.628;2023-08-17T07:04:32;24.00;88.50
1259;DHT22;619;51.472;6.628;2023-08-17T07:06:58;24.00;88.30
1259;DHT22;619;51.472;6.628;2023-08-17T07:09:26;24.10;88.20
1259;DHT22;619;51.472;6.628;2023-08-17T07:11:53;24.10;87.30
1259;DHT22;619;51.472;6.628;2023-08-17T07:14:18;24.10;87.60
1259;DHT22;619;51.472;6.628;2023-08-17T07:16:46;24.10;87.40
1259;DHT22;619;51.472;6.628;2023-08-17T07:19:12;24.10;87.50
1259;DHT22;619;51.472;6.628;2023-08-17T07:21:38;24.10;87.40
1259;DHT22;619;51.472;6.628;2023-08-17T07:24:14;24.10;87.10
1259;DHT22;619;51.472;6.628;2023-08-17T07:26:45;24.10;87.20
1259;DHT22;619;51.472;6.628;2023-08-17T07:29:11;24.10;87.20
1259;DHT22;619;51.472;6.628;2023-08-17T07:31:38;24.10;87.10
1259;DHT22;619;51.472;6.628;2023-08-17T07:34:05;24.10;86.80
1259;DHT22;619;51.472;6.628;2023-08-17T07:36:33;24.10;87.00
1259;DHT22;619;51.472;6.628;2023-08-17T07:38:59;24.10;87.20
1259;DHT22;619;51.472;6.628;2023-08-17T07:41:29;24.10;87.20
1259;DHT22;619;51.472;6.628;2023-08-17T07:43:55;24.10;86.80
1259;DHT22;619;51.472;6.628;2023-08-17T07:46:21;24.10;87.10
1259;DHT22;619;51.472;6.628;2023-08-17T07:48:46;24.00;87.40
1259;DHT22;619;51.472;6.628;2023-08-17T07:51:12;24.10;86.80
1259;DHT22;619;51.472;6.628;2023-08-17T07:53:39;24.00;86.50
1259;DHT22;619;51.472;6.628;2023-08-17T07:56:04;24.00;86.90
1259;DHT22;619;51.472;6.628;2023-08-17T07:58:32;24.00;87.10
1259;DHT22;619;51.472;6.628;2023-08-17T08:01:00;24.00;87.20
1259;DHT22;619;51.472;6.628;2023-08-17T08:03:26;24.00;87.70
1259;DHT22;619;51.472;6.628;2023-08-17T08:05:52;24.10;88.10
1259;DHT22;619;51.472;6.628;2023-08-17T08:08:20;24.20;88.00
1259;DHT22;619;51.472;6.628;2023-08-17T08:10:48;24.20;87.60
1259;DHT22;619;51.472;6.628;2023-08-17T08:13:13;24.20;88.00
1259;DHT22;619;51.472;6.628;2023-08-17T08:15:42;24.20;87.10
1259;DHT22;619;51.472;6.628;2023-08-17T08:18:07;24.30;87.40
1259;DHT22;619;51.472;6.628;2023-08-17T08:20:35;24.30;87.30
1259;DHT22;619;51.472;6.628;2023-08-17T08:23:03;24.30;87.50
1259;DHT22;619;51.472;6.628;2023-08-17T08:25:31;24.30;86.90
1259;DHT22;619;51.472;6.628;2023-08-17T08:28:01;24.30;86.60
1259;DHT22;619;51.472;6.628;2023-08-17T08:30:27;24.30;86.70
1259;DHT22;619;51.472;6.628;2023-08-17T08:32:52;24.30;86.30
1259;DHT22;619;51.472;6.628;2023-08-17T08:35:20;24.30;86.20
1259;DHT22;619;51.472;6.628;2023-08-17T08:37:47;24.30;87.00
1259;DHT22;619;51.472;6.628;2023-08-17T08:40:14;24.30;87.30
1259;DHT22;619;51.472;6.628;2023-08-17T08:42:45;24.40;87.00
1259;DHT22;619;51.472;6.628;2023-08-17T08:45:11;24.40;87.30
1259;DHT22;619;51.472;6.628;2023-08-17T08:47:36;24.40;87.40
1259;DHT22;619;51.472;6.628;2023-08-17T08:50:04;24.40;87.30
1259;DHT22;619;51.472;6.628;2023-08-17T08:52:42;24.50;87.20
1259;DHT22;619;51.472;6.628;2023-08-17T08:55:17;24.40;86.40
1259;DHT22;619;51.472;6.628;2023-08-17T08:57:44;24.50;86.60
1259;DHT22;619;51.472;6.628;2023-08-17T09:00:12;24.50;86.50
1259;DHT22;619;51.472;6.628;2023-08-17T09:02:38;24.50;86.80
1259;DHT22;619;51.472;6.628;2023-08-17T09:05:05;24.50;86.80
1259;DHT22;619;51.472;6.628;2023-08-17T09:07:34;24.50;87.10
1259;DHT22;619;51.472;6.628;2023-08-17T09:10:01;24.60;87.70
1259;DHT22;619;51.472;6.628;2023-08-17T09:12:29;24.70;87.70
1259;DHT22;619;51.472;6.628;2023-08-17T09:14:54;24.80;87.30
1259;DHT22;619;51.472;6.628;2023-08-17T09:17:24;24.80;86.30
1259;DHT22;619;51.472;6.628;2023-08-17T09:19:50;24.80;86.50
1259;DHT22;619;51.472;6.628;2023-08-17T09:22:23;24.90;86.60
1259;DHT22;619;51.472;6.628;2023-08-17T09:24:54;24.90;86.30
1259;DHT22;619;51.472;6.628;2023-08-17T09:27:23;24.90;85.70
1259;DHT22;619;51.472;6.628;2023-08-17T09:29:51;24.90;85.60
1259;DHT22;619;51.472;6.628;2023-08-17T09:32:16;24.90;84.70
1259;DHT22;619;51.472;6.628;2023-08-17T09:34:44;24.90;85.40
1259;DHT22;619;51.472;6.628;2023-08-17T09:37:11;24.90;86.20
1259;DHT22;619;51.472;6.628;2023-08-17T09:39:39;24.90;85.50
1259;DHT22;619;51.472;6.628;2023-08-17T09:42:10;25.00;86.30
1259;DHT22;619;51.472;6.628;2023-08-17T09:44:37;25.10;85.70
1259;DHT22;619;51.472;6.628;2023-08-17T09:47:05;25.10;85.70
1259;DHT22;619;51.472;6.628;2023-08-17T09:49:37;25.10;86.60
1259;DHT22;619;51.472;6.628;2023-08-17T09:52:04;25.20;86.20
1259;DHT22;619;51.472;6.628;2023-08-17T09:54:31;25.20;85.70
1259;DHT22;619;51.472;6.628;2023-08-17T09:56:59;25.20;85.70
1259;DHT22;619;51.472;6.628;2023-08-17T09:59:24;25.30;85.90
1259;DHT22;619;51.472;6.628;2023-08-17T10:01:51;25.40;85.90
1259;DHT22;619;51.472;6.628;2023-08-17T10:04:23;25.40;85.70
1259;DHT22;619;51.472;6.628;2023-08-17T10:06:56;25.50;85.90
1259;DHT22;619;51.472;6.628;2023-08-17T10:09:24;25.60;85.60
1259;DHT22;619;51.472;6.628;2023-08-17T10:11:57;25.60;84.60
1259;DHT22;619;51.472;6.628;2023-08-17T10:14:29;25.70;84.80
1259;DHT22;619;51.472;6.628;2023-08-17T10:17:07;25.70;84.30
1259;DHT22;619;51.472;6.628;2023-08-17T10:19:51;25.80;84.60
1259;DHT22;619;51.472;6.628;2023-08-17T10:22:39;25.80;84.00
1259;DHT22;619;51.472;6.628;2023-08-17T10:25:11;25.90;84.90
1259;DHT22;619;51.472;6.628;2023-08-17T10:27:41;26.00;84.80
1259;DHT22;619;51.472;6.628;2023-08-17T10:30:10;26.10;84.60
1259;DHT22;619;51.472;6.628;2023-08-17T10:32:38;26.10;84.00
1259;DHT22;619;51.472;6.628;2023-08-17T10:35:06;26.20;83.90
1259;DHT22;619;51.472;6.628;2023-08-17T10:37:32;26.30;85.10
1259;DHT22;619;51.472;6.628;2023-08-17T10:39:58;26.40;84.40
1259;DHT22;619;51.472;6.628;2023-08-17T10:42:53;26.50;84.50
1259;DHT22;619;51.472;6.628;2023-08-17T10:47:50;26.70;83.40
1259;DHT22;619;51.472;6.628;2023-08-17T10:50:24;26.80;83.70
1259;DHT22;619;51.472;6.628;2023-08-17T10:52:54;26.90;82.50
1259;DHT22;619;51.472;6.628;2023-08-17T10:55:41;27.00;83.20
1259;DHT22;619;51.472;6.628;2023-08-17T10:58:12;27.10;82.10
1259;DHT22;619;51.472;6.628;2023-08-17T11:00:40;27.10;81.20
1259;DHT22;619;51.472;6.628;2023-08-17T11:03:17;27.10;79.90
1259;DHT22;619;51.472;6.628;2023-08-17T11:05:53;27.10;79.10
1259;DHT22;619;51.472;6.628;2023-08-17T11:08:34;27.00;79.40
1259;DHT22;619;51.472;6.628;2023-08-17T11:13:35;27.00;81.50
1259;DHT22;619;51.472;6.628;2023-08-17T11:16:02;27.00;81.30
1259;DHT22;619;51.472;6.628;2023-08-17T11:18:28;27.00;80.40
1259;DHT22;619;51.472;6.628;2023-08-17T11:20:56;27.00;80.40
1259;DHT22;619;51.472;6.628;2023-08-17T11:23:23;27.00;80.40
1259;DHT22;619;51.472;6.628;2023-08-17T11:25:54;27.00;81.30
1259;DHT22;619;51.472;6.628;2023-08-17T11:28:21;27.10;81.50
1259;DHT22;619;51.472;6.628;2023-08-17T11:30:59;27.00;79.80
1259;DHT22;619;51.472;6.628;2023-08-17T11:33:30;26.90;79.30
1259;DHT22;619;51.472;6.628;2023-08-17T11:35:56;26.80;80.00
1259;DHT22;619;51.472;6.628;2023-08-17T11:38:25;26.80;80.40
1259;DHT22;619;51.472;6.628;2023-08-17T11:40:54;26.70;80.60
1259;DHT22;619;51.472;6.628;2023-08-17T11:43:22;26.70;81.20
1259;DHT22;619;51.472;6.628;2023-08-17T11:45:56;26.70;81.70
1259;DHT22;619;51.472;6.628;2023-08-17T11:48:23;26.80;82.50
1259;DHT22;619;51.472;6.628;2023-08-17T11:50:49;26.90;82.30
1259;DHT22;619;51.472;6.628;2023-08-17T11:53:15;26.90;81.10
1259;DHT22;619;51.472;6.628;2023-08-17T11:55:41;27.00;81.40
1259;DHT22;619;51.472;6.628;2023-08-17T11:58:09;27.10;81.70
1259;DHT22;619;51.472;6.628;2023-08-17T12:00:36;27.10;82.50
1259;DHT22;619;51.472;6.628;2023-08-17T12:03:04;27.20;80.60
1259;DHT22;619;51.472;6.628;2023-08-17T12:05:32;27.30;80.60
1259;DHT22;619;51.472;6.628;2023-08-17T12:08:02;27.30;80.00
1259;DHT22;619;51.472;6.628;2023-08-17T12:10:36;27.30;79.30
1259;DHT22;619;51.472;6.628;2023-08-17T12:13:02;27.30;79.40
1259;DHT22;619;51.472;6.628;2023-08-17T12:15:32;27.30;80.70
1259;DHT22;619;51.472;6.628;2023-08-17T12:18:00;27.40;80.90
1259;DHT22;619;51.472;6.628;2023-08-17T12:20:31;27.50;80.60
1259;DHT22;619;51.472;6.628;2023-08-17T12:22:58;27.50;80.10
1259;DHT22;619;51.472;6.628;2023-08-17T12:25:29;27.50;79.50
1259;DHT22;619;51.472;6.628;2023-08-17T12:27:58;27.50;79.20
1259;DHT22;619;51.472;6.628;2023-08-17T12:30:29;27.40;79.30
1259;DHT22;619;51.472;6.628;2023-08-17T12:32:56;27.30;78.70
1259;DHT22;619;51.472;6.628;2023-08-17T12:35:22;27.20;78.30
1259;DHT22;619;51.472;6.628;2023-08-17T12:37:52;27.10;78.70
1259;DHT22;619;51.472;6.628;2023-08-17T12:40:18;27.10;79.30
1259;DHT22;619;51.472;6.628;2023-08-17T12:42:44;27.10;79.80
1259;DHT22;619;51.472;6.628;2023-08-17T12:45:12;27.00;79.30
1259;DHT22;619;51.472;6.628;2023-08-17T12:47:40;27.00;79.80
1259;DHT22;619;51.472;6.628;2023-08-17T12:50:08;26.90;79.20
1259;DHT22;619;51.472;6.628;2023-08-17T12:52:34;26.80;79.40
1259;DHT22;619;51.472;6.628;2023-08-17T12:55:02;26.80;80.10
1259;DHT22;619;51.472;6.628;2023-08-17T12:57:28;26.80;80.60
1259;DHT22;619;51.472;6.628;2023-08-17T12:59:56;26.80;79.90
1259;DHT22;619;51.472;6.628;2023-08-17T13:02:24;26.80;80.50
1259;DHT22;619;51.472;6.628;2023-08-17T13:04:52;26.90;80.40
1259;DHT22;619;51.472;6.628;2023-08-17T13:07:17;26.90;80.20
1259;DHT22;619;51.472;6.628;2023-08-17T13:09:43;27.00;80.50
1259;DHT22;619;51.472;6.628;2023-08-17T13:12:14;27.00;80.30
1259;DHT22;619;51.472;6.628;2023-08-17T13:14:42;27.00;80.50
1259;DHT22;619;51.472;6.628;2023-08-17T13:17:08;27.00;79.90
1259;DHT22;619;51.472;6.628;2023-08-17T13:19:33;27.10;80.30
1259;DHT22;619;51.472;6.628;2023-08-17T13:22:01;27.10;80.40
1259;DHT22;619;51.472;6.628;2023-08-17T13:24:30;27.10;79.90
1259;DHT22;619;51.472;6.628;2023-08-17T13:26:56;27.20;80.00
1259;DHT22;619;51.472;6.628;2023-08-17T13:29:22;27.20;79.60
1259;DHT22;619;51.472;6.628;2023-08-17T13:31:48;27.20;79.00
1259;DHT22;619;51.472;6.628;2023-08-17T13:34:16;27.20;79.10
1259;DHT22;619;51.472;6.628;2023-08-17T13:36:48;27.20;79.50
1259;DHT22;619;51.472;6.628;2023-08-17T13:39:13;27.20;79.10
1259;DHT22;619;51.472;6.628;2023-08-17T13:41:40;27.30;79.60
1259;DHT22;619;51.472;6.628;2023-08-17T13:44:06;27.30;79.40
1259;DHT22;619;51.472;6.628;2023-08-17T13:46:36;27.40;79.10
1259;DHT22;619;51.472;6.628;2023-08-17T13:49:02;27.40;78.50
1259;DHT22;619;51.472;6.628;2023-08-17T13:51:27;27.30;78.40
1259;DHT22;619;51.472;6.628;2023-08-17T13:53:58;27.30;78.60
1259;DHT22;619;51.472;6.628;2023-08-17T13:56:24;27.30;78.30
1259;DHT22;619;51.472;6.628;2023-08-17T13:58:52;27.30;78.20
1259;DHT22;619;51.472;6.628;2023-08-17T14:01:22;27.20;77.80
1259;DHT22;619;51.472;6.628;2023-08-17T14:03:50;27.20;77.70
1259;DHT22;619;51.472;6.628;2023-08-17T14:06:16;27.10;77.90
1259;DHT22;619;51.472;6.628;2023-08-17T14:08:44;27.10;77.50
1259;DHT22;619;51.472;6.628;2023-08-17T14:11:10;27.10;77.90
1259;DHT22;619;51.472;6.628;2023-08-17T14:13:37;27.00;77.50
1259;DHT22;619;51.472;6.628;2023-08-17T14:16:07;27.00;78.50
1259;DHT22;619;51.472;6.628;2023-08-17T14:18:34;26.90;78.50
1259;DHT22;619;51.472;6.628;2023-08-17T14:21:02;26.90;78.60
1259;DHT22;619;51.472;6.628;2023-08-17T14:23:30;26.90;78.40
1259;DHT22;619;51.472;6.628;2023-08-17T14:25:56;27.00;78.50
1259;DHT22;619;51.472;6.628;2023-08-17T14:28:26;26.90;78.00
1259;DHT22;619;51.472;6.628;2023-08-17T14:30:52;26.90;78.20
1259;DHT22;619;51.472;6.628;2023-08-17T14:33:17;26.90;78.00
1259;DHT22;619;51.472;6.628;2023-08-17T14:35:45;26.90;78.60
1259;DHT22;619;51.472;6.628;2023-08-17T14:38:11;26.90;78.40
1259;DHT22;619;51.472;6.628;2023-08-17T14:40:48;27.00;78.50
1259;DHT22;619;51.472;6.628;2023-08-17T14:43:15;27.00;78.40
1259;DHT22;619;51.472;6.628;2023-08-17T14:45:43;27.00;78.30
1259;DHT22;619;51.472;6.628;2023-08-17T14:48:09;27.00;78.40
1259;DHT22;619;51.472;6.628;2023-08-17T14:50:37;27.10;78.10
1259;DHT22;619;51.472;6.628;2023-08-17T14:53:04;27.10;78.40
1259;DHT22;619;51.472;6.628;2023-08-17T14:55:32;27.10;77.60
1259;DHT22;619;51.472;6.628;2023-08-17T14:57:58;27.10;77.80
1259;DHT22;619;51.472;6.628;2023-08-17T15:00:24;27.10;78.10
1259;DHT22;619;51.472;6.628;2023-08-17T15:02:50;27.10;77.50
1259;DHT22;619;51.472;6.628;2023-08-17T15:05:20;27.10;77.60
1259;DHT22;619;51.472;6.628;2023-08-17T15:07:47;27.10;77.00
1259;DHT22;619;51.472;6.628;2023-08-17T15:10:12;27.00;77.60
1259;DHT22;619;51.472;6.628;2023-08-17T15:12:40;27.00;77.70
1259;DHT22;619;51.472;6.628;2023-08-17T15:15:10;27.10;78.10
1259;DHT22;619;51.472;6.628;2023-08-17T15:17:38;27.10;78.10
1259;DHT22;619;51.472;6.628;2023-08-17T15:20:07;27.20;78.00
1259;DHT22;619;51.472;6.628;2023-08-17T15:22:35;27.20;77.80
1259;DHT22;619;51.472;6.628;2023-08-17T15:25:03;27.10;77.00
1259;DHT22;619;51.472;6.628;2023-08-17T15:27:31;27.10;77.20
1259;DHT22;619;51.472;6.628;2023-08-17T15:29:56;27.00;77.20
1259;DHT22;619;51.472;6.628;2023-08-17T15:32:24;27.00;77.60
1259;DHT22;619;51.472;6.628;2023-08-17T15:34:52;27.00;77.40
1259;DHT22;619;51.472;6.628;2023-08-17T15:37:18;26.90;77.70
1259;DHT22;619;51.472;6.628;2023-08-17T15:39:43;26.90;77.40
1259;DHT22;619;51.472;6.628;2023-08-17T15:42:11;26.80;77.30
1259;DHT22;619;51.472;6.628;2023-08-17T15:44:42;26.80;77.40
1259;DHT22;619;51.472;6.628;2023-08-17T15:47:08;26.80;77.80
1259;DHT22;619;51.472;6.628;2023-08-17T15:49:34;26.70;77.80
1259;DHT22;619;51.472;6.628;2023-08-17T15:52:01;26.70;78.00
1259;DHT22;619;51.472;6.628;2023-08-17T15:54:27;26.60;78.10
1259;DHT22;619;51.472;6.628;2023-08-17T15:56:55;26.60;78.50
1259;DHT22;619;51.472;6.628;2023-08-17T15:59:21;26.60;78.50
1259;DHT22;619;51.472;6.628;2023-08-17T16:01:46;26.50;78.50
1259;DHT22;619;51.472;6.628;2023-08-17T16:04:15;26.50;78.60
1259;DHT22;619;51.472;6.628;2023-08-17T16:06:45;26.60;78.70
1259;DHT22;619;51.472;6.628;2023-08-17T16:09:15;26.50;78.60
1259;DHT22;619;51.472;6.628;2023-08-17T16:11:43;26.60;79.10
1259;DHT22;619;51.472;6.628;2023-08-17T16:14:08;26.60;79.20
1259;DHT22;619;51.472;6.628;2023-08-17T16:16:34;26.70;79.10
1259;DHT22;619;51.472;6.628;2023-08-17T16:19:00;26.70;79.00
1259;DHT22;619;51.472;6.628;2023-08-17T16:21:27;26.80;78.90
1259;DHT22;619;51.472;6.628;2023-08-17T16:23:53;26.90;78.90
1259;DHT22;619;51.472;6.628;2023-08-17T16:26:19;26.90;78.40
1259;DHT22;619;51.472;6.628;2023-08-17T16:28:49;27.00;78.10
1259;DHT22;619;51.472;6.628;2023-08-17T16:31:14;27.00;78.30
1259;DHT22;619;51.472;6.628;2023-08-17T16:33:40;27.00;78.00